createdAt,value
2018-03-29T00:01:11.714Z,88.20
2018-03-29T00:03:39.070Z,91.70
2018-03-29T00:06:06.429Z,102.03
2018-03-29T00:08:33.821Z,98.43
2018-03-29T00:11:01.227Z,105.20
2018-03-29T00:13:28.599Z,100.67
2018-03-29T00:15:56.001Z,95.33
2018-03-29T00:18:23.379Z,94.97
2018-03-29T00:20:50.750Z,100.33
2018-03-29T00:23:18.313Z,101.27
2018-03-29T00:25:45.685Z,95.77
2018-03-29T00:28:13.045Z,98.70
2018-03-29T00:30:40.423Z,88.07
2018-03-29T00:33:07.783Z,97.70
2018-03-29T00:35:35.174Z,107.03
2018-03-29T00:38:02.582Z,91.53
2018-03-29T00:40:29.938Z,89.00
2018-03-29T00:42:57.338Z,98.60
2018-03-29T00:45:24.729Z,95.83
2018-03-29T00:47:52.114Z,99.67
2018-03-29T00:50:19.509Z,99.30
2018-03-29T00:52:46.898Z,96.03
2018-03-29T00:55:14.286Z,103.33
2018-03-29T00:57:41.678Z,92.87
2018-03-29T01:00:09.036Z,93.87
2018-03-29T01:02:36.397Z,81.47
2018-03-29T01:05:03.797Z,85.43
2018-03-29T01:07:31.174Z,88.17
2018-03-29T01:09:58.545Z,89.77
2018-03-29T01:12:26.049Z,89.87
2018-03-29T01:14:53.408Z,93.43
2018-03-29T01:17:20.778Z,89.60
2018-03-29T01:19:48.177Z,89.20
2018-03-29T01:22:15.532Z,88.27
2018-03-29T01:24:42.897Z,84.67
2018-03-29T01:27:10.301Z,90.80
2018-03-29T01:29:37.657Z,87.07
2018-03-29T01:32:05.015Z,89.40
2018-03-29T01:34:32.411Z,87.93
2018-03-29T01:36:59.770Z,90.70
2018-03-29T01:39:27.129Z,85.23
2018-03-29T01:41:54.545Z,92.93
2018-03-29T01:44:21.957Z,84.57
2018-03-29T01:46:49.318Z,95.60
2018-03-29T01:49:16.729Z,84.07
2018-03-29T01:51:44.105Z,100.20
2018-03-29T01:54:11.460Z,91.33
2018-03-29T01:56:38.857Z,92.07
2018-03-29T01:59:06.223Z,89.63
2018-03-29T02:01:33.586Z,89.40
2018-03-29T02:04:01.033Z,89.83
2018-03-29T02:06:28.419Z,92.13
2018-03-29T02:08:55.792Z,91.07
2018-03-29T02:11:23.199Z,100.37
2018-03-29T02:13:50.565Z,99.73
2018-03-29T02:16:17.932Z,93.07
2018-03-29T02:18:45.348Z,106.93
2018-03-29T02:21:12.718Z,100.63
2018-03-29T02:23:40.089Z,100.97
2018-03-29T02:26:07.482Z,110.17
2018-03-29T02:28:34.880Z,102.07
2018-03-29T02:31:02.252Z,98.57
2018-03-29T02:33:29.622Z,99.17
2018-03-29T02:35:57.035Z,100.17
2018-03-29T02:38:24.418Z,102.13
2018-03-29T02:40:51.782Z,98.60
2018-03-29T02:43:19.181Z,112.87
2018-03-29T02:45:46.562Z,119.37
2018-03-29T02:48:13.930Z,123.20
2018-03-29T02:50:41.337Z,107.40
2018-03-29T02:53:08.821Z,112.70
2018-03-29T02:55:36.191Z,103.03
2018-03-29T02:58:03.584Z,113.53
2018-03-29T03:00:30.951Z,116.07
2018-03-29T03:02:58.313Z,117.10
2018-03-29T03:05:25.729Z,114.10
2018-03-29T03:07:53.154Z,121.30
2018-03-29T03:10:20.513Z,116.57
2018-03-29T03:12:47.914Z,109.13
2018-03-29T03:15:15.274Z,121.43
2018-03-29T03:17:42.640Z,118.27
2018-03-29T03:20:10.038Z,119.33
2018-03-29T03:22:37.400Z,104.67
2018-03-29T03:25:04.771Z,101.00
2018-03-29T03:27:32.173Z,103.20
2018-03-29T03:29:59.538Z,112.60
2018-03-29T03:32:26.902Z,105.70
2018-03-29T03:34:54.313Z,102.20
2018-03-29T03:37:21.716Z,102.83
2018-03-29T03:39:49.084Z,98.97
2018-03-29T03:42:16.503Z,101.30
2018-03-29T03:44:43.864Z,89.57
2018-03-29T03:47:11.230Z,82.20
2018-03-29T03:49:38.629Z,83.00
2018-03-29T03:52:05.981Z,84.40
2018-03-29T03:54:33.394Z,66.13
2018-03-29T03:57:00.793Z,62.33
2018-03-29T03:59:28.201Z,54.73
2018-03-29T04:01:55.574Z,56.63
2018-03-29T04:04:22.972Z,53.10
2018-03-29T04:06:50.365Z,45.80
2018-03-29T04:09:17.830Z,35.07
2018-03-29T04:11:45.265Z,44.00
2018-03-29T04:14:12.658Z,37.37
2018-03-29T04:16:40.042Z,36.63
2018-03-29T04:19:07.403Z,36.20
2018-03-29T04:21:34.773Z,34.63
2018-03-29T04:24:02.174Z,32.20
2018-03-29T04:26:29.524Z,34.77
2018-03-29T04:28:56.900Z,34.97
2018-03-29T04:31:24.290Z,26.17
2018-03-29T04:33:51.649Z,25.70
2018-03-29T04:36:19.037Z,32.00
2018-03-29T04:38:46.394Z,28.23
2018-03-29T04:41:13.751Z,30.47
2018-03-29T04:43:41.153Z,30.93
2018-03-29T04:46:08.513Z,34.63
2018-03-29T04:48:35.870Z,33.47
2018-03-29T04:51:03.285Z,32.00
2018-03-29T04:53:30.641Z,31.33
2018-03-29T04:55:58.025Z,32.40
2018-03-29T04:58:25.438Z,30.10
2018-03-29T05:00:52.826Z,26.80
2018-03-29T05:03:20.197Z,33.37
2018-03-29T05:05:47.597Z,29.30
2018-03-29T05:08:14.961Z,30.23
2018-03-29T05:10:42.317Z,30.73
2018-03-29T05:13:09.760Z,28.87
2018-03-29T05:15:37.201Z,28.80
2018-03-29T05:18:04.557Z,27.73
2018-03-29T05:20:31.974Z,23.77
2018-03-29T05:22:59.342Z,24.20
2018-03-29T05:25:26.693Z,18.87
2018-03-29T05:27:54.113Z,21.47
2018-03-29T05:30:21.961Z,20.00
2018-03-29T05:32:49.327Z,19.40
2018-03-29T05:35:16.762Z,15.80
2018-03-29T05:37:44.182Z,14.70
2018-03-29T05:40:11.595Z,16.97
2018-03-29T05:42:38.973Z,16.03
2018-03-29T05:45:06.327Z,20.03
2018-03-29T05:47:33.717Z,15.50
2018-03-29T05:50:01.121Z,15.93
2018-03-29T05:52:28.495Z,27.30
2018-03-29T05:54:55.873Z,15.73
2018-03-29T05:57:23.221Z,16.27
2018-03-29T05:59:50.585Z,14.47
2018-03-29T06:02:17.982Z,14.37
2018-03-29T06:04:45.332Z,9.00
2018-03-29T06:07:12.705Z,11.77
2018-03-29T06:09:40.087Z,9.97
2018-03-29T06:12:07.441Z,12.97
2018-03-29T06:14:40.615Z,9.90
2018-03-29T06:17:07.965Z,14.00
2018-03-29T06:19:35.310Z,8.90
2018-03-29T06:22:02.694Z,7.43
2018-03-29T06:24:30.586Z,7.77
2018-03-29T06:26:57.939Z,10.17
2018-03-29T06:29:25.333Z,9.17
2018-03-29T06:31:52.698Z,9.10
2018-03-29T06:34:20.043Z,7.67
2018-03-29T06:36:47.433Z,9.23
2018-03-29T06:39:14.778Z,9.47
2018-03-29T06:41:42.141Z,7.83
2018-03-29T06:44:09.521Z,8.57
2018-03-29T06:46:36.874Z,6.57
2018-03-29T06:49:04.296Z,7.50
2018-03-29T06:51:31.670Z,8.93
2018-03-29T06:53:59.014Z,7.03
2018-03-29T06:56:26.391Z,8.10
2018-03-29T06:58:53.734Z,7.90
2018-03-29T07:01:21.082Z,7.23
2018-03-29T07:03:48.495Z,6.93
2018-03-29T07:06:15.844Z,6.77
2018-03-29T07:08:43.199Z,5.50
2018-03-29T07:11:10.596Z,7.83
2018-03-29T07:13:38.090Z,7.37
2018-03-29T07:16:05.490Z,5.97
2018-03-29T07:18:32.873Z,7.50
2018-03-29T07:21:00.214Z,7.80
2018-03-29T07:23:27.617Z,5.80
2018-03-29T07:25:55.006Z,6.10
2018-03-29T07:28:22.344Z,4.20
2018-03-29T07:30:49.711Z,4.93
2018-03-29T07:33:17.095Z,5.97
2018-03-29T07:35:44.475Z,5.27
2018-03-29T07:38:12.043Z,5.53
2018-03-29T07:40:39.397Z,4.93
2018-03-29T07:43:06.790Z,5.47
2018-03-29T07:45:34.529Z,6.07
2018-03-29T07:48:01.877Z,3.90
2018-03-29T07:50:29.278Z,6.80
2018-03-29T07:52:56.632Z,5.20
2018-03-29T07:55:23.979Z,4.33
2018-03-29T07:57:51.370Z,3.83
2018-03-29T08:00:18.747Z,3.70
2018-03-29T08:02:46.102Z,3.40
2018-03-29T08:05:13.503Z,5.50
2018-03-29T08:07:40.853Z,4.50
2018-03-29T08:10:08.202Z,5.80
2018-03-29T08:12:35.593Z,5.20
2018-03-29T08:15:02.929Z,5.47
2018-03-29T08:17:30.280Z,5.57
2018-03-29T08:19:57.660Z,5.00
2018-03-29T08:22:25.006Z,5.33
2018-03-29T08:24:52.350Z,6.50
2018-03-29T08:27:19.735Z,4.60
2018-03-29T08:29:47.086Z,5.83
2018-03-29T08:32:14.425Z,4.93
2018-03-29T08:34:41.816Z,3.80
2018-03-29T08:37:09.157Z,4.13
2018-03-29T08:39:36.501Z,3.27
2018-03-29T08:42:03.900Z,4.07
2018-03-29T08:44:31.241Z,3.57
2018-03-29T08:46:58.589Z,4.90
2018-03-29T08:49:25.978Z,5.80
2018-03-29T08:51:56.334Z,4.60
2018-03-29T08:54:23.677Z,6.33
2018-03-29T08:56:51.074Z,4.30
2018-03-29T08:59:18.422Z,7.00
2018-03-29T09:01:45.776Z,4.23
2018-03-29T09:04:13.166Z,6.80
2018-03-29T09:06:40.506Z,7.00
2018-03-29T09:09:07.854Z,4.50
2018-03-29T09:11:35.229Z,3.90
2018-03-29T09:14:02.588Z,4.90
2018-03-29T09:16:29.937Z,5.53
2018-03-29T09:18:57.395Z,6.13
2018-03-29T09:21:24.736Z,6.70
2018-03-29T09:23:52.103Z,4.93
2018-03-29T09:26:19.487Z,7.00
2018-03-29T09:28:46.908Z,6.00
2018-03-29T09:31:14.265Z,9.33
2018-03-29T09:33:41.660Z,5.63
2018-03-29T09:36:09.014Z,5.40
2018-03-29T09:38:36.365Z,6.80
2018-03-29T09:41:03.740Z,4.97
2018-03-29T09:43:31.084Z,8.47
2018-03-29T09:45:58.441Z,6.53
2018-03-29T09:48:25.828Z,7.03
2018-03-29T09:50:53.167Z,7.23
2018-03-29T09:53:21.234Z,8.13
2018-03-29T09:55:48.606Z,8.20
2018-03-29T09:58:15.953Z,7.37
2018-03-29T10:00:43.304Z,7.20
2018-03-29T10:03:10.690Z,6.70
2018-03-29T10:05:38.081Z,7.13
2018-03-29T10:08:05.427Z,6.70
2018-03-29T10:10:32.806Z,9.70
2018-03-29T10:13:00.163Z,7.87
2018-03-29T10:15:27.504Z,8.53
2018-03-29T10:17:54.877Z,7.30
2018-03-29T10:20:22.270Z,10.73
2018-03-29T10:22:49.644Z,8.03
2018-03-29T10:25:16.989Z,5.97
2018-03-29T10:27:44.378Z,6.27
2018-03-29T10:30:11.740Z,6.03
2018-03-29T10:32:39.098Z,8.47
2018-03-29T10:35:06.495Z,4.57
2018-03-29T10:37:33.833Z,4.60
2018-03-29T10:40:01.196Z,5.23
2018-03-29T10:42:28.577Z,5.57
2018-03-29T10:44:55.921Z,6.37
2018-03-29T10:47:23.266Z,4.20
2018-03-29T10:49:50.671Z,6.40
2018-03-29T10:52:18.028Z,5.60
2018-03-29T10:54:45.368Z,4.73
2018-03-29T10:57:12.761Z,5.77
2018-03-29T10:59:40.113Z,5.80
2018-03-29T11:02:07.754Z,4.93
2018-03-29T11:04:35.129Z,4.27
2018-03-29T11:07:02.481Z,5.20
2018-03-29T11:09:29.827Z,5.80
2018-03-29T11:11:57.205Z,6.37
2018-03-29T11:14:24.549Z,3.60
2018-03-29T11:16:51.896Z,4.40
2018-03-29T11:19:19.272Z,7.77
2018-03-29T11:21:46.635Z,5.70
2018-03-29T11:24:13.978Z,4.97
2018-03-29T11:26:41.356Z,6.00
2018-03-29T11:29:08.701Z,6.30
2018-03-29T11:31:36.064Z,7.20
2018-03-29T11:34:03.456Z,5.13
2018-03-29T11:36:30.801Z,7.53
2018-03-29T11:38:58.149Z,6.37
2018-03-29T11:41:25.545Z,5.10
2018-03-29T11:43:52.895Z,6.60
2018-03-29T11:46:20.247Z,6.10
2018-03-29T11:48:47.630Z,8.17
2018-03-29T11:51:15.003Z,5.73
2018-03-29T11:53:42.349Z,6.40
2018-03-29T11:56:09.754Z,5.40
2018-03-29T11:58:37.153Z,6.47
2018-03-29T12:01:04.502Z,7.00
2018-03-29T12:03:31.885Z,6.90
2018-03-29T12:05:59.232Z,5.20
2018-03-29T12:08:26.585Z,7.63
2018-03-29T12:10:53.978Z,8.90
2018-03-29T12:13:21.334Z,8.40
2018-03-29T12:15:48.676Z,6.70
2018-03-29T12:18:16.049Z,7.10
2018-03-29T12:20:43.392Z,5.40
2018-03-29T12:23:10.745Z,7.23
2018-03-29T12:25:38.130Z,6.20
2018-03-29T12:28:05.521Z,7.20
2018-03-29T12:30:32.865Z,5.63
2018-03-29T12:33:00.266Z,7.83
2018-03-29T12:35:27.653Z,5.93
2018-03-29T12:37:54.993Z,5.07
2018-03-29T12:40:22.382Z,4.03
2018-03-29T12:42:49.738Z,7.20
2018-03-29T12:45:17.093Z,9.80
2018-03-29T12:47:44.483Z,8.83
2018-03-29T12:50:11.841Z,9.33
2018-03-29T12:52:39.222Z,7.00
2018-03-29T12:55:12.453Z,6.83
2018-03-29T12:57:45.811Z,7.23
2018-03-29T13:00:13.211Z,11.87
2018-03-29T13:02:40.550Z,7.60
2018-03-29T13:05:07.933Z,6.30
2018-03-29T13:07:35.282Z,7.50
2018-03-29T13:10:02.694Z,10.13
2018-03-29T13:12:30.079Z,9.93
2018-03-29T13:14:57.442Z,7.60
2018-03-29T13:17:24.792Z,8.63
2018-03-29T13:19:52.184Z,10.43
2018-03-29T13:22:19.590Z,8.43
2018-03-29T13:24:46.956Z,12.23
2018-03-29T13:27:14.341Z,13.97
2018-03-29T13:29:44.809Z,8.97
2018-03-29T13:32:12.158Z,12.73
2018-03-29T13:34:39.540Z,12.20
2018-03-29T13:37:06.906Z,16.47
2018-03-29T13:39:34.261Z,12.93
2018-03-29T13:42:01.669Z,13.10
2018-03-29T13:44:29.034Z,14.03
2018-03-29T13:46:56.385Z,16.63
2018-03-29T13:49:23.785Z,16.17
2018-03-29T13:51:51.187Z,16.43
2018-03-29T13:54:18.546Z,13.50
2018-03-29T13:56:45.938Z,15.90
2018-03-29T13:59:13.294Z,13.20
2018-03-29T14:01:40.645Z,17.30
2018-03-29T14:04:08.057Z,13.53
2018-03-29T14:06:35.419Z,13.60
2018-03-29T14:09:02.929Z,13.23
2018-03-29T14:11:30.313Z,13.10
2018-03-29T14:13:57.669Z,16.13
2018-03-29T14:16:25.018Z,17.43
2018-03-29T14:18:52.413Z,15.70
2018-03-29T14:21:19.770Z,16.07
2018-03-29T14:23:47.160Z,15.67
2018-03-29T14:26:14.586Z,19.80
2018-03-29T14:28:41.962Z,19.93
2018-03-29T14:31:09.317Z,18.93
2018-03-29T14:33:36.693Z,21.17
2018-03-29T14:36:04.091Z,17.60
2018-03-29T14:38:31.511Z,18.77
2018-03-29T14:40:58.905Z,14.00
2018-03-29T14:43:26.274Z,19.27
2018-03-29T14:45:53.682Z,20.83
2018-03-29T14:48:21.030Z,17.20
2018-03-29T14:50:48.447Z,17.97
2018-03-29T14:53:15.853Z,18.30
2018-03-29T14:55:43.210Z,18.90
2018-03-29T14:58:10.561Z,20.17
2018-03-29T15:00:37.962Z,17.87
2018-03-29T15:03:05.341Z,18.63
2018-03-29T15:05:32.694Z,19.57
2018-03-29T15:08:00.097Z,18.97
2018-03-29T15:10:27.467Z,17.17
2018-03-29T15:12:54.828Z,19.20
2018-03-29T15:15:22.230Z,20.77
2018-03-29T15:17:49.601Z,19.40
2018-03-29T15:20:16.961Z,21.10
2018-03-29T15:22:44.351Z,20.00
2018-03-29T15:25:11.701Z,19.93
2018-03-29T15:27:39.057Z,22.83
2018-03-29T15:30:06.480Z,21.97
2018-03-29T15:32:33.845Z,24.20
2018-03-29T15:35:01.238Z,25.63
2018-03-29T15:37:28.656Z,22.90
2018-03-29T15:39:56.013Z,23.00
2018-03-29T15:42:23.459Z,20.13
2018-03-29T15:44:50.865Z,24.00
2018-03-29T15:47:18.271Z,21.90
2018-03-29T15:49:45.635Z,20.00
2018-03-29T15:52:13.025Z,20.20
2018-03-29T15:54:40.394Z,23.10
2018-03-29T15:57:07.749Z,21.77
2018-03-29T15:59:35.162Z,21.23
2018-03-29T16:02:02.547Z,23.83
2018-03-29T16:04:29.910Z,21.47
2018-03-29T16:06:57.413Z,25.80
2018-03-29T16:09:24.778Z,25.07
2018-03-29T16:11:52.161Z,23.20
2018-03-29T16:14:19.538Z,21.57
2018-03-29T16:16:46.901Z,21.60
2018-03-29T16:19:14.314Z,25.50
2018-03-29T16:21:41.674Z,19.13
2018-03-29T16:24:09.049Z,27.53
2018-03-29T16:26:36.436Z,23.57
2018-03-29T16:29:03.869Z,21.63
2018-03-29T16:31:31.233Z,21.20
2018-03-29T16:33:58.621Z,21.50
2018-03-29T16:36:25.978Z,21.53
2018-03-29T16:38:53.349Z,23.00
2018-03-29T16:41:20.833Z,20.80
2018-03-29T16:43:48.202Z,23.30
2018-03-29T16:46:15.561Z,23.20
2018-03-29T16:48:42.975Z,20.20
2018-03-29T16:51:10.339Z,22.90
2018-03-29T16:53:37.716Z,22.77
2018-03-29T16:56:05.154Z,22.70
2018-03-29T16:58:33.134Z,22.57
2018-03-29T17:01:00.484Z,21.87
2018-03-29T17:03:28.002Z,22.17
2018-03-29T17:05:55.361Z,21.80
2018-03-29T17:08:22.764Z,23.70
2018-03-29T17:10:50.167Z,27.43
2018-03-29T17:13:17.534Z,22.03
2018-03-29T17:15:44.885Z,24.80
2018-03-29T17:18:12.271Z,23.30
2018-03-29T17:20:39.626Z,23.30
2018-03-29T17:23:06.986Z,24.43
2018-03-29T17:25:34.386Z,24.40
2018-03-29T17:28:01.742Z,24.57
2018-03-29T17:30:29.153Z,26.47
2018-03-29T17:32:56.549Z,24.60
2018-03-29T17:35:23.909Z,27.27
2018-03-29T17:37:51.270Z,23.90
2018-03-29T17:40:18.666Z,25.60
2018-03-29T17:42:46.031Z,27.10
2018-03-29T17:45:13.391Z,19.97
2018-03-29T17:50:07.573Z,20.40
2018-03-29T17:52:34.931Z,20.00
2018-03-29T17:55:02.336Z,26.80
2018-03-29T17:57:29.693Z,26.20
2018-03-29T17:59:57.050Z,27.57
2018-03-29T18:02:24.467Z,28.77
2018-03-29T18:04:51.826Z,23.20
2018-03-29T18:07:19.191Z,26.37
2018-03-29T18:09:46.637Z,28.37
2018-03-29T18:12:13.993Z,25.63
2018-03-29T18:14:41.351Z,27.67
2018-03-29T18:17:08.761Z,25.43
2018-03-29T18:19:36.121Z,27.23
2018-03-29T18:22:03.498Z,27.20
2018-03-29T18:24:30.899Z,30.50
2018-03-29T18:26:58.252Z,32.53
2018-03-29T18:29:25.605Z,27.90
2018-03-29T18:31:53.014Z,28.13
2018-03-29T18:34:20.378Z,31.33
2018-03-29T18:36:47.805Z,26.43
2018-03-29T18:39:15.202Z,31.67
2018-03-29T18:41:42.552Z,32.67
2018-03-29T18:44:09.919Z,33.03
2018-03-29T18:46:37.321Z,30.33
2018-03-29T18:49:04.731Z,31.40
2018-03-29T18:51:32.088Z,34.77
2018-03-29T18:53:59.509Z,36.03
2018-03-29T18:56:26.929Z,30.00
2018-03-29T18:58:54.293Z,35.43
2018-03-29T19:01:21.678Z,36.23
2018-03-29T19:03:49.066Z,29.20
2018-03-29T19:06:16.469Z,32.07
2018-03-29T19:08:43.879Z,35.40
2018-03-29T19:11:11.250Z,35.10
2018-03-29T19:13:38.649Z,28.00
2018-03-29T19:16:05.998Z,33.83
2018-03-29T19:18:33.390Z,32.93
2018-03-29T19:21:00.791Z,32.23
2018-03-29T19:23:28.150Z,30.47
2018-03-29T19:25:55.506Z,31.80
2018-03-29T19:28:22.923Z,27.27
2018-03-29T19:30:50.309Z,36.53
2018-03-29T19:33:17.670Z,29.50
2018-03-29T19:35:45.080Z,31.77
2018-03-29T19:38:12.518Z,29.77
2018-03-29T19:40:39.906Z,26.00
2018-03-29T19:43:10.406Z,25.50
2018-03-29T19:45:37.816Z,25.83
2018-03-29T19:48:05.194Z,26.77
2018-03-29T19:50:32.606Z,25.23
2018-03-29T19:53:00.739Z,27.83
2018-03-29T19:55:28.107Z,22.90
2018-03-29T19:57:55.505Z,23.83
2018-03-29T20:00:22.887Z,26.60
2018-03-29T20:02:50.250Z,22.53
2018-03-29T20:05:18.605Z,23.43
2018-03-29T20:07:45.965Z,25.53
2018-03-29T20:10:13.325Z,26.53
2018-03-29T20:12:40.726Z,23.47
2018-03-29T20:15:08.086Z,25.17
2018-03-29T20:17:35.441Z,23.37
2018-03-29T20:20:02.857Z,27.30
2018-03-29T20:22:30.275Z,23.50
2018-03-29T20:24:57.662Z,22.00
2018-03-29T20:27:25.026Z,26.17
2018-03-29T20:29:52.441Z,26.00
2018-03-29T20:32:19.834Z,24.10
2018-03-29T20:34:47.187Z,28.83
2018-03-29T20:37:14.606Z,27.20
2018-03-29T20:39:41.977Z,35.57
2018-03-29T20:42:09.333Z,29.17
2018-03-29T20:44:36.768Z,28.90
2018-03-29T20:47:04.122Z,31.40
2018-03-29T20:49:31.477Z,27.90
2018-03-29T20:51:59.413Z,33.10
2018-03-29T20:54:26.802Z,29.40
2018-03-29T20:56:54.166Z,28.60
2018-03-29T20:59:21.553Z,34.47
2018-03-29T21:01:48.926Z,34.53
2018-03-29T21:04:16.287Z,26.23
2018-03-29T21:06:43.728Z,28.57
2018-03-29T21:09:11.089Z,29.63
2018-03-29T21:11:38.457Z,24.70
2018-03-29T21:14:05.845Z,28.87
2018-03-29T21:16:33.196Z,29.73
2018-03-29T21:19:00.556Z,25.80
2018-03-29T21:21:27.947Z,30.23
2018-03-29T21:23:55.314Z,34.20
2018-03-29T21:26:22.678Z,24.60
2018-03-29T21:28:50.092Z,29.40
2018-03-29T21:31:17.453Z,25.80
2018-03-29T21:33:44.833Z,28.20
2018-03-29T21:36:12.235Z,32.70
2018-03-29T21:38:39.590Z,27.67
2018-03-29T21:41:06.993Z,27.77
2018-03-29T21:43:34.349Z,25.73
2018-03-29T21:46:01.702Z,26.67
2018-03-29T21:48:29.102Z,26.90
2018-03-29T21:50:56.486Z,31.87
2018-03-29T21:53:23.863Z,27.27
2018-03-29T21:55:51.274Z,34.77
2018-03-29T21:58:18.642Z,27.80
2018-03-29T22:00:45.997Z,30.33
2018-03-29T22:03:13.426Z,30.20
2018-03-29T22:05:40.827Z,40.20
2018-03-29T22:08:08.199Z,33.97
2018-03-29T22:10:39.157Z,37.70
2018-03-29T22:13:06.526Z,34.20
2018-03-29T22:15:33.890Z,33.53
2018-03-29T22:18:01.278Z,41.90
2018-03-29T22:20:28.636Z,35.63
2018-03-29T22:22:56.090Z,37.50
2018-03-29T22:25:23.481Z,32.00
2018-03-29T22:27:50.908Z,34.40
2018-03-29T22:30:18.283Z,31.47
2018-03-29T22:32:45.651Z,35.10
2018-03-29T22:35:13.054Z,36.47
2018-03-29T22:37:40.405Z,37.77
2018-03-29T22:40:07.762Z,38.83
2018-03-29T22:42:35.160Z,35.23
2018-03-29T22:45:02.518Z,35.90
2018-03-29T22:47:29.869Z,41.63
2018-03-29T22:49:57.252Z,42.77
2018-03-29T22:52:24.604Z,40.10
2018-03-29T22:54:51.970Z,43.40
2018-03-29T22:57:19.365Z,36.43
2018-03-29T22:59:46.721Z,39.63
2018-03-29T23:02:14.078Z,38.03
2018-03-29T23:04:41.491Z,41.23
2018-03-29T23:07:08.850Z,36.73
2018-03-29T23:09:36.201Z,42.43
2018-03-29T23:12:03.592Z,42.97
2018-03-29T23:14:30.963Z,43.60
2018-03-29T23:16:58.336Z,42.50
2018-03-29T23:19:25.716Z,42.70
2018-03-29T23:21:53.085Z,40.87
2018-03-29T23:24:20.446Z,36.93
2018-03-29T23:26:47.881Z,41.03
2018-03-29T23:29:15.265Z,46.17
2018-03-29T23:31:42.626Z,44.63
2018-03-29T23:34:10.042Z,42.07
2018-03-29T23:36:37.402Z,39.93
2018-03-29T23:39:05.520Z,46.03
2018-03-29T23:41:32.929Z,49.30
2018-03-29T23:44:00.301Z,41.60
2018-03-29T23:46:27.671Z,43.00
2018-03-29T23:48:55.078Z,43.53
2018-03-29T23:51:22.436Z,47.43
2018-03-29T23:53:49.794Z,46.43
2018-03-29T23:56:17.221Z,48.10
2018-03-29T23:58:44.573Z,44.83
